Airfield :
LOGIN :

Register | Disclaimer

   EN    FR    IT 

 










Legend :    VFR   Marginal VFR   IFR   Intensive IFR   Very Intensive IFR
Visi :
Ceiling :
>= 8 km
>= 3000ft
5 to 8 km
1000 to 3000 ft
1500m to 5 km
500 to 1000 ft
800 to 1500m
200 to 500 ft
< 800m
< 200 ft
Symbols :   Thunderstorms  Fog  Heavy snow  Heavy precipitations  Wind > 20 kt
SIGMETs :     Misc.  Thunderstorms  Icing  Turbulence  Mountain Waves  Volcanic Ashes







- Airport Elevation : 36 ft
- IATA code : LTQ
- Download approach charts


LFAT - Le Touquet

CURRENT METAR :
  • 180730Z AUTO VRB01KT 9999 OVC012 14/13 Q1024 BECMG BKN020

EXPIRED METARs :
  • 180700Z AUTO 00000KT 8000 BKN008 OVC014 13/13 Q1024 TEMPO 4000 DZRA BECMG BKN020
  • 180630Z AUTO 14003KT 9999 BKN009 BKN014 OVC028 12/12 Q1023 TEMPO 4000 DZRA BECMG BKN020
  • 180600Z AUTO 36003KT 340V050 7000 BKN013 BKN020 13/13 Q1023 TEMPO 4000 DZRA
  • 180530Z AUTO VRB03KT 8000 BKN012 BKN018 11/11 Q1023 TEMPO 4000 DZRA
  • 180500Z AUTO 00000KT 8000 BKN016 OVC029 11/11 Q1023

TAF TAF LFAT
Valid from the 18 at 06:00 until the 18 at 15:00 UTC


180500Z 1806/1815 VRB02KT 9999 BKN020
TEMPO 1806/1808 4000 DZRA BKN012
ATIS : +33 3 21 06 62 84
No reported NOTAMs for that airfield.



MET'MAP, your aeronautical weather chart ! - Copyright ORBIFLY December 2007 - Disclaimer

ORBIFLY MET'MAP TEAM :

Programming & Development : Alexandra Zaïnal
Concept & Development : Baudouin d'Aumeries
Co-Development & Prog : Marc-Olivier Méhu
Technical & hardware support : Manuel Goepfert

Contact : metmap@orbifly.com




SOURCES & CREDITS :

   NOAA